Bartelso, Illinois
Current Conditions -  °F | °C
As of 12:35 PM on Saturday 25 Oct 2014 (Local Time) from KENL Reporting Station
Clear Clear  
Wind Chill: 73°   Ceiling: Unl
Heat Index: 73°   Visibility: 10mi
Dew Point: 59°   Wind: 7mph
Humidity: 61%   Direction: 300°WNW
Pressure: 30.02"   Gusts: NA
Location:  38.54°N, 89.47°W
Report Text: KENL 251735Z AUTO 30006KT 10SM CLR 23/15 A3002 RMK AO2 T02280149
Loading
Personal Weather Stations






























Interactive Weather Map
Tropical Storm Tracking
New forecast layout! Learn more

10-Day Weather Forecast

Advertisements
Track Severe Weather on mobile